Time;durP1;ratioP1;P1;durP2;ratioP2;P2;SDS_P1;SDS_P2;PMS_P1;PMS_P2;Temp;Humidity;BMP_temperature;BMP_pressure;BME280_temperature;BME280_humidity;BME280_pressure;Samples;Min_cycle;Max_cycle;Signal;HPM_P1;HPM_P2
2021/12/24 00:00:36;;;;;;;237.65;52.45;;;5.90;99.90;;;;;;5085003;28;20041;-59
2021/12/24 00:03:02;;;;;;;234.80;53.58;;;6.00;99.90;;;;;;5078388;28;20442;-59
2021/12/24 00:05:27;;;;;;;246.18;53.70;;;6.00;99.90;;;;;;5086663;28;20486;-59
2021/12/24 00:07:53;;;;;;;227.55;50.85;;;6.00;99.90;;;;;;5091914;28;20048;-59
2021/12/24 00:10:19;;;;;;;220.70;52.03;;;6.00;99.90;;;;;;5077137;28;20131;-58
2021/12/24 00:12:49;;;;;;;218.38;52.00;;;6.10;99.90;;;;;;5081473;28;20051;-59
2021/12/24 00:18:19;;;;;;;;;;;6.20;99.90;;;;;;5083556;28;20441;-58
2021/12/24 00:37:12;;;;;;;197.13;47.63;;;6.30;99.90;;;;;;5084937;28;20085;-59
2021/12/24 00:39:47;;;;;;;231.52;52.13;;;6.60;99.90;;;;;;5074184;28;20048;-60
2021/12/24 00:42:14;;;;;;;220.07;51.03;;;6.50;99.90;;;;;;5091163;28;20079;-59
2021/12/24 00:44:40;;;;;;;202.35;47.72;;;6.30;99.90;;;;;;5090574;28;20072;-59
2021/12/24 00:47:05;;;;;;;215.85;52.65;;;6.40;99.90;;;;;;5088842;28;20078;-59
2021/12/24 00:49:31;;;;;;;183.25;49.55;;;6.40;99.90;;;;;;5088646;28;20080;-60
2021/12/24 00:52:17;;;;;;;197.98;49.03;;;6.40;99.90;;;;;;5090592;28;20036;-59
2021/12/24 00:57:28;;;;;;;177.30;45.45;;;6.50;99.90;;;;;;5088803;28;20043;-59
2021/12/24 00:59:53;;;;;;;170.07;43.58;;;6.50;99.90;;;;;;5092060;28;20100;-60
2021/12/24 01:02:19;;;;;;;204.88;48.35;;;6.50;99.90;;;;;;5069805;28;20157;-60
2021/12/24 01:04:45;;;;;;;164.75;46.92;;;6.50;99.90;;;;;;5092359;28;20036;-59
2021/12/24 01:07:11;;;;;;;185.93;48.67;;;6.60;99.90;;;;;;5070303;28;20044;-60
2021/12/24 01:09:37;;;;;;;169.95;46.35;;;6.60;99.90;;;;;;5071332;28;20387;-57
2021/12/24 01:12:03;;;;;;;153.63;43.38;;;6.60;99.90;;;;;;5085898;28;20070;-57
2021/12/24 01:14:30;;;;;;;146.82;41.75;;;6.60;99.90;;;;;;5091319;28;20068;-59
2021/12/24 01:17:12;;;;;;;145.23;41.80;;;6.60;99.90;;;;;;5069345;28;20044;-57
2021/12/24 01:19:41;;;;;;;149.25;41.97;;;6.80;99.90;;;;;;5088338;28;20079;-57
2021/12/24 01:24:49;;;;;;;142.38;41.17;;;6.70;99.90;;;;;;5088122;28;20071;-60
2021/12/24 01:27:32;;;;;;;141.15;40.83;;;6.70;99.90;;;;;;5090993;28;20081;-60
2021/12/24 01:37:49;;;;;;;141.45;41.45;;;6.70;99.90;;;;;;5091718;28;20046;-58
2021/12/24 01:38:22;;;;;;;168.80;44.78;;;6.80;99.90;;;;;;5089261;28;20410;-58
2021/12/24 01:43:24;;;;;;;161.25;43.80;;;6.80;99.90;;;;;;5070889;28;20040;-58
2021/12/24 01:45:52;;;;;;;174.77;44.60;;;7.00;99.90;;;;;;5091690;28;20043;-59
2021/12/24 01:48:19;;;;;;;144.73;40.65;;;6.90;99.90;;;;;;5081259;28;20154;-59
2021/12/24 01:50:46;;;;;;;165.55;42.85;;;6.90;99.90;;;;;;5073357;28;20539;-58
2021/12/24 01:53:15;;;;;;;160.32;42.40;;;7.20;99.90;;;;;;5081284;28;20047;-58
2021/12/24 01:55:41;;;;;;;154.50;43.13;;;7.00;99.90;;;;;;5086127;28;20123;-59
2021/12/24 01:58:07;;;;;;;155.88;42.13;;;7.00;99.90;;;;;;5073892;28;20044;-58
2021/12/24 02:00:38;;;;;;;190.48;43.60;;;7.00;99.90;;;;;;5085357;28;20073;-58
2021/12/24 02:03:05;;;;;;;167.70;42.75;;;7.00;99.90;;;;;;5077081;28;20040;-59
2021/12/24 02:05:31;;;;;;;155.18;41.17;;;7.10;99.90;;;;;;5072335;28;20072;-59
2021/12/24 02:07:58;;;;;;;164.65;41.13;;;7.10;99.90;;;;;;5071555;28;20139;-60
2021/12/24 02:10:24;;;;;;;173.10;41.92;;;7.10;99.90;;;;;;5075047;28;20048;-59
2021/12/24 02:12:50;;;;;;;147.35;40.80;;;7.10;99.90;;;;;;5070791;28;20033;-60
2021/12/24 02:28:39;;;;;;;139.45;35.90;;;7.50;99.90;;;;;;5074671;28;19930;-59
2021/12/24 02:31:13;;;;;;;141.90;37.10;;;7.50;99.90;;;;;;5075857;28;20471;-59
2021/12/24 02:33:39;;;;;;;146.80;38.53;;;7.60;99.90;;;;;;5074927;28;20032;-59
2021/12/24 02:36:07;;;;;;;166.55;40.97;;;7.60;99.90;;;;;;5074953;28;20472;-60
2021/12/24 02:38:33;;;;;;;162.27;39.67;;;7.60;99.90;;;;;;5087027;28;20034;-59
2021/12/24 02:40:59;;;;;;;148.73;36.25;;;7.60;99.90;;;;;;5088775;28;20117;-59
2021/12/24 02:43:26;;;;;;;129.55;34.58;;;7.60;99.90;;;;;;5111157;28;20044;-58
2021/12/24 02:45:56;;;;;;;142.07;35.60;;;7.60;99.90;;;;;;5094795;28;20127;-60
2021/12/24 02:56:36;;;;;;;135.18;32.55;;;7.70;99.90;;;;;;5025553;28;20132;-58
2021/12/24 02:59:12;;;;;;;125.45;31.02;;;7.70;99.90;;;;;;5082031;28;20434;-60
2021/12/24 03:01:41;;;;;;;115.15;29.58;;;7.70;99.90;;;;;;5096762;28;20071;-58
2021/12/24 03:04:08;;;;;;;123.75;29.23;;;7.70;99.90;;;;;;5094008;28;20036;-59
2021/12/24 03:06:38;;;;;;;87.50;25.63;;;7.70;99.90;;;;;;5095067;28;20072;-59
2021/12/24 03:09:07;;;;;;;90.82;24.48;;;7.70;99.90;;;;;;5095877;28;20133;-59
2021/12/24 03:11:34;;;;;;;77.95;22.00;;;7.80;99.90;;;;;;5095958;28;20038;-59
2021/12/24 03:14:00;;;;;;;66.45;19.40;;;7.80;99.90;;;;;;5100057;28;20038;-58
2021/12/24 03:16:26;;;;;;;70.25;19.55;;;7.90;99.90;;;;;;5113298;28;20040;-59
2021/12/24 03:18:52;;;;;;;75.07;21.58;;;7.90;99.90;;;;;;5114577;28;20482;-59
2021/12/24 03:24:33;;;;;;;79.35;22.77;;;8.10;99.90;;;;;;5107221;28;20043;-60
2021/12/24 03:26:41;;;;;;;82.88;22.67;;;8.10;99.90;;;;;;5098459;28;20043;-60
2021/12/24 03:29:10;;;;;;;78.43;23.35;;;8.20;99.90;;;;;;5093706;28;20048;-59
2021/12/24 03:31:37;;;;;;;88.47;25.25;;;8.20;99.90;;;;;;5097547;28;20506;-60
2021/12/24 03:34:08;;;;;;;91.82;25.77;;;8.20;99.90;;;;;;5076800;28;20142;-58
2021/12/24 03:36:34;;;;;;;103.43;28.58;;;8.20;99.90;;;;;;5103968;28;20048;-60
2021/12/24 03:39:00;;;;;;;97.32;28.23;;;8.20;99.90;;;;;;5095849;28;20046;-59
2021/12/24 03:41:26;;;;;;;111.60;30.23;;;8.30;99.90;;;;;;5084575;28;20411;-60
2021/12/24 03:43:53;;;;;;;128.60;33.50;;;8.30;99.90;;;;;;5055130;28;20044;-60
2021/12/24 03:46:25;;;;;;;121.25;34.15;;;8.30;99.90;;;;;;5073915;28;20051;-59
2021/12/24 03:48:56;;;;;;;114.40;34.13;;;8.30;99.90;;;;;;5072337;28;20071;-59
2021/12/24 03:51:45;;;;;;;126.95;34.67;;;8.30;99.90;;;;;;5078787;28;20036;-59
2021/12/24 03:56:55;;;;;;;121.40;34.63;;;8.20;99.90;;;;;;5075670;28;20083;-59
2021/12/24 03:59:20;;;;;;;118.97;35.03;;;8.20;99.90;;;;;;5088330;28;20075;-59
2021/12/24 04:01:46;;;;;;;93.82;29.92;;;8.20;99.90;;;;;;5083349;28;20067;-59
2021/12/24 04:04:12;;;;;;;114.97;34.08;;;8.20;99.90;;;;;;5074889;28;20037;-58
2021/12/24 04:06:38;;;;;;;116.50;35.05;;;8.10;99.90;;;;;;5073544;28;20459;-59
2021/12/24 04:09:06;;;;;;;127.50;35.42;;;8.20;99.90;;;;;;5087871;28;20032;-58
2021/12/24 04:11:32;;;;;;;113.60;32.83;;;8.30;99.90;;;;;;5077437;28;20036;-57
2021/12/24 04:13:58;;;;;;;120.00;33.50;;;8.10;99.90;;;;;;5076422;28;20032;-59
2021/12/24 04:16:23;;;;;;;135.88;35.65;;;8.20;99.90;;;;;;5072457;28;20097;-60
2021/12/24 04:19:16;;;;;;;98.65;31.35;;;8.10;99.90;;;;;;5075782;28;20043;-58
2021/12/24 04:24:51;;;;;;;105.25;31.45;;;8.30;99.90;;;;;;5072787;28;20039;-59
2021/12/24 04:27:18;;;;;;;113.00;32.95;;;8.40;99.90;;;;;;5091913;28;20035;-60
2021/12/24 04:29:44;;;;;;;107.70;32.70;;;8.10;99.90;;;;;;5086575;28;20392;-58
2021/12/24 04:32:15;;;;;;;109.18;32.20;;;8.10;99.90;;;;;;5072308;28;20051;-59
2021/12/24 04:34:45;;;;;;;92.43;29.02;;;8.10;99.90;;;;;;5079769;28;20068;-58
2021/12/24 04:51:08;;;;;;;100.97;30.80;;;8.10;99.90;;;;;;5074491;28;20082;-58
2021/12/24 05:02:41;;;;;;;91.40;29.30;;;8.20;99.90;;;;;;5059822;28;20063;-59
2021/12/24 05:04:46;;;;;;;92.18;27.95;;;8.20;99.90;;;;;;5055836;28;20493;-58
2021/12/24 05:07:40;;;;;;;74.80;26.30;;;8.20;99.90;;;;;;5078139;28;20195;-58
2021/12/24 05:09:58;;;;;;;79.65;27.20;;;8.30;99.90;;;;;;5073228;28;20041;-58
2021/12/24 05:12:23;;;;;;;70.45;26.23;;;8.20;99.90;;;;;;5076123;28;20518;-58
2021/12/24 05:14:49;;;;;;;86.60;28.05;;;8.30;99.90;;;;;;5071863;28;20442;-58
2021/12/24 05:17:26;;;;;;;77.93;28.13;;;8.20;99.90;;;;;;5053635;28;20028;-57
2021/12/24 05:22:40;;;;;;;69.18;26.80;;;8.30;99.90;;;;;;5034889;28;20044;-58
2021/12/24 05:25:06;;;;;;;81.70;25.73;;;8.30;99.90;;;;;;5073302;28;20036;-56
2021/12/24 05:27:34;;;;;;;69.70;24.85;;;8.30;99.90;;;;;;5071354;28;20036;-58
2021/12/24 05:30:00;;;;;;;62.75;25.05;;;8.30;99.90;;;;;;5071832;28;20044;-58
2021/12/24 05:32:25;;;;;;;65.45;25.73;;;8.20;99.90;;;;;;5071409;28;20086;-59
2021/12/24 05:34:51;;;;;;;72.57;24.70;;;8.30;99.90;;;;;;5073210;28;20044;-59
2021/12/24 05:37:17;;;;;;;63.65;24.52;;;8.20;99.90;;;;;;5070778;28;20549;-58
2021/12/24 05:39:42;;;;;;;62.35;22.98;;;8.20;99.90;;;;;;5072357;28;20028;-58
2021/12/24 05:42:08;;;;;;;64.35;23.25;;;8.10;99.90;;;;;;5071348;28;20105;-57
2021/12/24 05:44:34;;;;;;;76.95;25.30;;;8.10;99.90;;;;;;5070969;28;20036;-58
2021/12/24 05:47:01;;;;;;;68.93;22.95;;;8.10;99.90;;;;;;5071495;28;20060;-58
2021/12/24 05:49:26;;;;;;;63.47;23.40;;;8.20;99.90;;;;;;5072077;28;20036;-57
2021/12/24 05:51:52;;;;;;;60.95;22.30;;;8.30;99.90;;;;;;5071749;28;20050;-59
2021/12/24 05:54:18;;;;;;;64.13;22.38;;;8.20;99.90;;;;;;5077652;28;20494;-58
2021/12/24 05:56:44;;;;;;;59.33;21.92;;;8.40;99.90;;;;;;5075397;28;20032;-58
2021/12/24 05:59:10;;;;;;;65.82;21.45;;;8.20;99.90;;;;;;5070686;28;20385;-58
2021/12/24 06:01:36;;;;;;;57.00;21.27;;;8.20;99.90;;;;;;5052956;28;20044;-58
2021/12/24 06:04:02;;;;;;;65.03;21.08;;;8.20;99.90;;;;;;5070830;28;20412;-58
2021/12/24 06:06:28;;;;;;;55.60;20.65;;;8.20;99.90;;;;;;5053147;28;20045;-59
2021/12/24 06:08:54;;;;;;;57.72;20.23;;;8.20;99.90;;;;;;5070956;28;20495;-58
2021/12/24 06:11:20;;;;;;;59.97;20.17;;;8.10;99.90;;;;;;5072023;28;20047;-58
2021/12/24 06:13:48;;;;;;;47.95;19.20;;;8.10;99.90;;;;;;5071048;28;20037;-60
2021/12/24 06:16:13;;;;;;;57.60;19.15;;;8.10;99.90;;;;;;5075160;28;20032;-59
2021/12/24 06:18:41;;;;;;;54.47;18.08;;;8.10;99.90;;;;;;5090806;28;20040;-59
2021/12/24 06:21:07;;;;;;;46.53;16.92;;;8.10;99.90;;;;;;5077492;28;20479;-59
2021/12/24 06:23:34;;;;;;;50.33;17.23;;;8.00;99.90;;;;;;5068396;28;20029;-58
2021/12/24 06:26:00;;;;;;;55.15;18.38;;;8.00;99.90;;;;;;5070744;28;20114;-59
2021/12/24 06:28:27;;;;;;;47.60;17.25;;;8.00;99.90;;;;;;5062223;28;20044;-58
2021/12/24 06:30:54;;;;;;;58.05;16.85;;;8.00;99.90;;;;;;5062458;28;20604;-59
2021/12/24 06:33:20;;;;;;;48.55;16.77;;;8.00;99.90;;;;;;5059087;28;20040;-58
2021/12/24 06:35:46;;;;;;;57.15;15.80;;;8.00;99.90;;;;;;5059330;28;20051;-58
2021/12/24 06:38:13;;;;;;;43.47;14.85;;;8.00;99.90;;;;;;5063444;28;20059;-58
2021/12/24 06:40:39;;;;;;;47.72;15.23;;;8.00;99.90;;;;;;5076502;28;20050;-58
2021/12/24 06:43:05;;;;;;;44.50;14.70;;;8.00;99.90;;;;;;5090670;28;20101;-58
2021/12/24 06:45:32;;;;;;;36.00;13.95;;;8.00;99.90;;;;;;5104924;28;20410;-58
2021/12/24 06:48:00;;;;;;;43.55;15.20;;;8.00;99.90;;;;;;5090715;28;20110;-57
2021/12/24 06:50:26;;;;;;;47.55;14.88;;;8.00;99.90;;;;;;5093709;28;20075;-58
2021/12/24 06:52:53;;;;;;;46.65;14.15;;;8.00;99.90;;;;;;5091400;28;20082;-57
2021/12/24 06:55:19;;;;;;;43.45;15.25;;;8.00;99.90;;;;;;5098412;28;20041;-59
2021/12/24 06:57:45;;;;;;;51.38;15.70;;;8.30;99.90;;;;;;5096266;28;20123;-59
2021/12/24 07:00:15;;;;;;;44.15;14.77;;;8.10;99.90;;;;;;5097360;28;20039;-58
2021/12/24 07:02:40;;;;;;;44.22;13.45;;;8.10;99.90;;;;;;5095610;28;20028;-57
2021/12/24 07:05:06;;;;;;;51.47;15.80;;;8.10;99.90;;;;;;5095120;28;20035;-58
2021/12/24 07:07:32;;;;;;;47.33;15.05;;;8.10;99.90;;;;;;5089718;28;20036;-59
2021/12/24 07:09:58;;;;;;;42.88;14.15;;;8.10;99.90;;;;;;5091525;28;20093;-58
2021/12/24 07:12:23;;;;;;;43.70;15.13;;;8.10;99.90;;;;;;5101491;28;20394;-58
2021/12/24 07:14:49;;;;;;;51.92;14.20;;;8.10;99.90;;;;;;5105378;28;20040;-59
2021/12/24 07:17:16;;;;;;;42.95;14.75;;;8.10;99.90;;;;;;5094845;28;20032;-59
2021/12/24 07:19:42;;;;;;;44.97;13.80;;;8.10;99.90;;;;;;5087181;28;20043;-58
2021/12/24 07:22:08;;;;;;;36.72;13.40;;;8.00;99.90;;;;;;5090245;28;20490;-59
2021/12/24 07:24:35;;;;;;;42.88;13.57;;;8.00;99.90;;;;;;5091022;28;20023;-59
2021/12/24 07:27:02;;;;;;;33.25;13.23;;;8.00;99.90;;;;;;5078784;28;20441;-59
2021/12/24 07:29:28;;;;;;;43.20;13.00;;;8.10;99.90;;;;;;5089984;28;20039;-59
2021/12/24 07:31:54;;;;;;;43.33;13.23;;;8.00;99.90;;;;;;5092767;28;20416;-60
2021/12/24 07:34:20;;;;;;;41.72;12.63;;;8.10;99.90;;;;;;5090454;28;20116;-58
2021/12/24 07:36:48;;;;;;;39.50;13.13;;;8.00;99.90;;;;;;5094430;28;20061;-59
2021/12/24 07:39:13;;;;;;;34.05;11.93;;;8.00;99.90;;;;;;5094525;28;20055;-58
2021/12/24 07:41:40;;;;;;;34.97;12.32;;;8.00;99.90;;;;;;5094965;28;20044;-58
2021/12/24 07:44:06;;;;;;;38.30;11.98;;;8.00;99.90;;;;;;5089450;28;20040;-59
2021/12/24 07:46:39;;;;;;;37.83;12.70;;;8.10;99.90;;;;;;5102137;27;20353;-59
2021/12/24 07:49:18;;;;;;;50.03;12.77;;;7.90;99.90;;;;;;5090696;28;20042;-59
2021/12/24 07:54:47;;;;;;;43.40;12.43;;;8.00;99.90;;;;;;5053393;28;20028;-58
2021/12/24 07:57:14;;;;;;;40.50;13.30;;;7.90;99.90;;;;;;5093346;28;20036;-59
2021/12/24 07:59:42;;;;;;;37.80;13.65;;;7.80;99.90;;;;;;5096724;28;20079;-58
2021/12/24 08:02:11;;;;;;;43.65;13.02;;;7.80;99.90;;;;;;5088929;28;20392;-58
2021/12/24 08:04:38;;;;;;;44.03;12.43;;;7.80;99.90;;;;;;5097105;28;20032;-57
2021/12/24 08:07:04;;;;;;;46.70;12.82;;;7.80;99.90;;;;;;5086203;28;20028;-58
2021/12/24 08:09:29;;;;;;;44.97;12.52;;;7.80;99.90;;;;;;5084443;28;20062;-59
2021/12/24 08:11:56;;;;;;;38.38;11.52;;;7.80;99.90;;;;;;5061174;28;20044;-57
2021/12/24 08:14:21;;;;;;;38.40;11.32;;;7.70;99.90;;;;;;5081291;28;20076;-59
2021/12/24 08:16:47;;;;;;;57.30;12.20;;;7.70;99.90;;;;;;5079578;28;20482;-59
2021/12/24 08:19:16;;;;;;;43.25;11.10;;;7.70;99.90;;;;;;5079720;28;20032;-59
2021/12/24 08:21:42;;;;;;;46.30;11.27;;;7.70;99.90;;;;;;5088960;28;20047;-58
2021/12/24 08:24:08;;;;;;;39.78;11.60;;;7.70;99.90;;;;;;5099176;27;20071;-59
2021/12/24 08:26:34;;;;;;;38.95;10.95;;;7.70;99.90;;;;;;5094528;28;20062;-58
2021/12/24 08:29:00;;;;;;;39.53;11.52;;;7.80;99.90;;;;;;5093092;28;20032;-59
2021/12/24 08:31:25;;;;;;;42.22;8.77;;;7.70;99.90;;;;;;5093459;28;20038;-59
2021/12/24 08:33:51;;;;;;;81.40;28.52;;;7.70;99.90;;;;;;5093761;28;20043;-59
2021/12/24 08:36:17;;;;;;;35.08;9.05;;;7.60;99.90;;;;;;5090411;28;20051;-60
2021/12/24 08:38:43;;;;;;;59.72;18.08;;;7.80;99.90;;;;;;5091990;28;20093;-58
2021/12/24 08:41:09;;;;;;;51.63;9.35;;;7.60;99.90;;;;;;5085854;28;20044;-59
2021/12/24 08:43:34;;;;;;;33.00;8.55;;;7.60;99.90;;;;;;5085761;28;20040;-58
2021/12/24 08:46:01;;;;;;;38.75;8.73;;;7.60;99.90;;;;;;5066353;28;20429;-60
2021/12/24 08:48:26;;;;;;;36.25;8.63;;;7.60;99.90;;;;;;5084378;28;20112;-58
2021/12/24 08:50:52;;;;;;;49.10;9.05;;;7.60;99.90;;;;;;5064452;28;20453;-58
2021/12/24 08:53:18;;;;;;;41.97;8.30;;;7.70;99.90;;;;;;5084572;28;20028;-58
2021/12/24 08:55:44;;;;;;;34.80;8.25;;;7.70;99.90;;;;;;5082084;28;20445;-58
2021/12/24 08:58:09;;;;;;;44.13;8.45;;;7.70;99.90;;;;;;5082388;28;20383;-57
2021/12/24 09:00:36;;;;;;;39.17;7.55;;;7.70;99.90;;;;;;5085062;28;20466;-58
2021/12/24 09:03:02;;;;;;;38.65;7.30;;;7.70;99.90;;;;;;5083318;28;20109;-58
2021/12/24 09:05:30;;;;;;;40.92;8.05;;;7.70;99.90;;;;;;5083813;28;20055;-58
2021/12/24 09:07:56;;;;;;;35.90;7.47;;;7.80;99.90;;;;;;5078822;28;20118;-58
2021/12/24 09:10:21;;;;;;;48.17;8.00;;;7.80;99.90;;;;;;5084134;28;20111;-60
2021/12/24 09:12:48;;;;;;;45.45;9.50;;;7.80;99.90;;;;;;5084669;28;22821;-58
2021/12/24 09:15:15;;;;;;;36.97;8.32;;;7.80;99.90;;;;;;5082691;28;20102;-57
2021/12/24 09:17:46;;;;;;;50.47;9.23;;;8.10;99.90;;;;;;5083262;28;20070;-58
2021/12/24 09:20:27;;;;;;;44.55;8.52;;;7.80;99.90;;;;;;5083611;28;20067;-61
2021/12/24 09:22:55;;;;;;;47.58;10.60;;;7.80;99.90;;;;;;5082791;28;20515;-59
2021/12/24 09:25:23;;;;;;;53.50;14.98;;;7.80;99.90;;;;;;5082612;28;20032;-59
2021/12/24 09:27:49;;;;;;;47.20;11.07;;;7.80;99.90;;;;;;5081062;28;20043;-58
2021/12/24 09:30:15;;;;;;;45.65;9.05;;;7.80;99.90;;;;;;5091873;28;20075;-58
2021/12/24 09:32:42;;;;;;;37.28;9.35;;;7.80;99.90;;;;;;5083207;28;20044;-59
2021/12/24 09:35:10;;;;;;;41.03;10.40;;;7.80;99.90;;;;;;5061929;28;20043;-59
2021/12/24 09:37:37;;;;;;;55.20;11.48;;;7.80;99.90;;;;;;5063499;28;20070;-59
2021/12/24 09:40:04;;;;;;;47.58;10.07;;;7.80;99.90;;;;;;5082133;28;20152;-58
2021/12/24 09:42:31;;;;;;;39.88;11.00;;;7.90;99.90;;;;;;5077537;28;20399;-58
2021/12/24 09:44:58;;;;;;;52.70;11.60;;;7.90;99.90;;;;;;5074268;28;20040;-57
2021/12/24 09:47:24;;;;;;;50.35;11.75;;;7.90;99.90;;;;;;5074333;28;20024;-59
2021/12/24 09:49:51;;;;;;;52.67;11.10;;;7.90;99.90;;;;;;5074446;28;20043;-59
2021/12/24 09:52:18;;;;;;;46.25;11.50;;;7.90;99.90;;;;;;5074506;28;20039;-57
2021/12/24 09:54:46;;;;;;;41.50;10.13;;;7.90;99.90;;;;;;5077026;28;20044;-58
2021/12/24 09:57:11;;;;;;;35.20;10.25;;;7.90;99.90;;;;;;5072618;28;20047;-58
2021/12/24 09:59:39;;;;;;;45.03;10.07;;;7.90;99.90;;;;;;5080383;28;20479;-57
2021/12/24 10:02:08;;;;;;;49.33;10.43;;;7.90;99.90;;;;;;5077444;28;22712;-58
2021/12/24 10:04:36;;;;;;;41.70;10.15;;;7.90;99.90;;;;;;5077160;28;20047;-58
2021/12/24 10:07:05;;;;;;;45.45;10.27;;;7.90;99.90;;;;;;5078349;28;20035;-59
2021/12/24 10:09:42;;;;;;;34.03;9.60;;;8.00;99.90;;;;;;5076956;28;20115;-56
2021/12/24 10:12:09;;;;;;;32.25;9.60;;;8.00;99.90;;;;;;5073375;28;20043;-57
2021/12/24 10:14:38;;;;;;;41.78;9.07;;;8.00;99.90;;;;;;5074519;28;20503;-60
2021/12/24 10:17:17;;;;;;;39.92;9.35;;;8.00;99.90;;;;;;5073390;28;20115;-58
2021/12/24 10:19:52;;;;;;;33.35;9.35;;;8.00;99.90;;;;;;5067662;28;20048;-58
2021/12/24 10:22:19;;;;;;;41.03;9.88;;;8.10;99.90;;;;;;5058851;28;20040;-57
2021/12/24 10:25:23;;;;;;;44.13;9.13;;;8.40;99.90;;;;;;5076615;28;20809;-58
2021/12/24 10:27:49;;;;;;;37.65;10.00;;;8.10;99.90;;;;;;5028230;28;20044;-58
2021/12/24 10:30:23;;;;;;;48.03;9.65;;;8.20;99.90;;;;;;5075945;28;20040;-57
2021/12/24 10:32:51;;;;;;;40.00;10.65;;;8.20;99.90;;;;;;5075483;28;20036;-59
2021/12/24 10:35:21;;;;;;;45.60;9.85;;;8.20;99.90;;;;;;5072603;28;20081;-58
2021/12/24 10:38:10;;;;;;;39.28;10.75;;;8.30;99.90;;;;;;5069771;28;20024;-58
2021/12/24 10:40:37;;;;;;;40.33;10.60;;;8.30;99.90;;;;;;5079218;28;20090;-60
2021/12/24 10:43:02;;;;;;;39.05;11.57;;;8.30;99.90;;;;;;5087165;28;20047;-58
2021/12/24 10:45:28;;;;;;;39.97;10.82;;;8.30;99.90;;;;;;5088295;28;20877;-59
2021/12/24 10:47:54;;;;;;;46.42;11.38;;;8.30;99.90;;;;;;5084257;28;22038;-59
2021/12/24 10:55:30;;;;;;;45.63;10.90;;;8.30;99.90;;;;;;5076408;28;20047;-58
2021/12/24 10:57:59;;;;;;;38.83;11.30;;;8.30;99.90;;;;;;5075583;28;20046;-59
2021/12/24 11:01:09;;;;;;;40.97;10.75;;;8.30;99.90;;;;;;5075829;28;20066;-58
2021/12/24 11:03:35;;;;;;;36.03;9.82;;;8.30;99.90;;;;;;5070234;28;20044;-59
2021/12/24 11:06:13;;;;;;;36.30;10.38;;;8.40;99.90;;;;;;5074475;28;22319;-59
2021/12/24 11:08:39;;;;;;;45.13;11.15;;;8.40;99.90;;;;;;5073132;28;20047;-59
2021/12/24 11:11:07;;;;;;;38.42;10.02;;;8.30;99.90;;;;;;5075161;28;20075;-59
2021/12/24 11:13:40;;;;;;;36.47;9.80;;;8.30;99.90;;;;;;5076068;28;20173;-58
2021/12/24 11:16:08;;;;;;;33.50;9.85;;;8.30;99.90;;;;;;5083422;28;20471;-59
2021/12/24 11:18:39;;;;;;;29.75;9.05;;;8.30;99.90;;;;;;5083040;28;20042;-58
2021/12/24 11:21:10;;;;;;;37.33;10.52;;;8.30;99.90;;;;;;5082017;28;20043;-58
2021/12/24 11:23:39;;;;;;;36.33;10.77;;;8.30;99.90;;;;;;5081483;28;21849;-58
2021/12/24 11:26:19;;;;;;;37.88;9.95;;;8.30;99.90;;;;;;5085467;28;20554;-58
2021/12/24 11:28:46;;;;;;;35.95;10.23;;;8.30;99.90;;;;;;5084439;28;20043;-59
2021/12/24 11:31:16;;;;;;;41.42;9.75;;;8.50;99.90;;;;;;5085167;28;20647;-59
2021/12/24 11:33:44;;;;;;;37.05;9.35;;;8.30;99.90;;;;;;5084563;28;20294;-59
2021/12/24 11:36:16;;;;;;;29.65;9.02;;;8.30;99.90;;;;;;5085497;28;20081;-59
2021/12/24 11:38:45;;;;;;;40.13;9.60;;;8.30;99.90;;;;;;5085250;28;20039;-59
2021/12/24 11:41:14;;;;;;;28.73;8.93;;;8.30;99.90;;;;;;5080886;28;20059;-58
2021/12/24 11:43:47;;;;;;;34.97;9.82;;;8.30;99.90;;;;;;5082868;28;20050;-58
2021/12/24 11:46:16;;;;;;;45.45;9.40;;;8.30;99.90;;;;;;5084990;28;20797;-57
2021/12/24 11:48:43;;;;;;;34.13;8.18;;;8.30;99.90;;;;;;5086211;28;20039;-59
2021/12/24 11:51:16;;;;;;;32.55;8.52;;;8.30;99.90;;;;;;5094889;28;20035;-59
2021/12/24 11:53:43;;;;;;;24.33;6.70;;;8.20;99.90;;;;;;5094892;28;20044;-58
2021/12/24 11:56:12;;;;;;;28.98;6.70;;;8.20;99.90;;;;;;5086960;28;20163;-58
2021/12/24 11:58:43;;;;;;;31.70;5.93;;;8.10;99.90;;;;;;5084009;28;20126;-57
2021/12/24 12:01:09;;;;;;;18.23;5.55;;;8.10;99.90;;;;;;5082218;28;20050;-58
2021/12/24 12:03:40;;;;;;;14.25;5.07;;;8.00;99.90;;;;;;5083883;28;20752;-58
2021/12/24 12:06:32;;;;;;;6.07;2.72;;;8.00;99.90;;;;;;5084461;28;20483;-58
2021/12/24 12:09:00;;;;;;;6.45;1.70;;;7.90;99.90;;;;;;5082758;28;20044;-59
2021/12/24 12:11:31;;;;;;;3.85;1.20;;;7.70;99.90;;;;;;5064741;28;20124;-58
2021/12/24 12:14:10;;;;;;;5.40;1.10;;;7.60;99.90;;;;;;5081040;28;20530;-58
2021/12/24 12:16:38;;;;;;;2.90;1.05;;;7.40;99.90;;;;;;5082353;28;20490;-59
2021/12/24 12:22:16;;;;;;;4.03;1.83;;;7.20;99.90;;;;;;5077017;28;20120;-58
2021/12/24 12:24:58;;;;;;;5.65;2.00;;;7.10;99.90;;;;;;5079256;28;20057;-59
2021/12/24 12:27:46;;;;;;;3.92;2.33;;;7.10;99.90;;;;;;5079315;28;20382;-58
2021/12/24 12:30:27;;;;;;;4.13;1.60;;;7.10;99.90;;;;;;5081148;28;20097;-58
2021/12/24 12:33:29;;;;;;;3.47;1.80;;;7.00;99.90;;;;;;5080052;28;20066;-58
2021/12/24 12:35:57;;;;;;;3.33;1.88;;;7.00;99.90;;;;;;5081598;28;20047;-58
2021/12/24 12:38:35;;;;;;;4.07;2.03;;;7.10;99.90;;;;;;5082452;28;20054;-59
2021/12/24 12:41:21;;;;;;;3.13;1.70;;;7.00;99.90;;;;;;5081753;28;20040;-59
2021/12/24 12:43:49;;;;;;;4.32;2.20;;;7.00;99.90;;;;;;5083238;28;20182;-58
2021/12/24 12:46:24;;;;;;;4.82;2.20;;;7.00;99.90;;;;;;5084455;28;20044;-58
2021/12/24 12:48:53;;;;;;;4.03;2.28;;;7.00;99.90;;;;;;5080429;28;20043;-58
2021/12/24 12:51:37;;;;;;;4.13;2.20;;;7.00;99.90;;;;;;5082129;28;20625;-58
2021/12/24 12:54:28;;;;;;;9.50;4.97;;;7.00;99.90;;;;;;5065430;28;20126;-58
2021/12/24 12:57:22;;;;;;;10.82;5.18;;;7.60;99.90;;;;;;5083732;28;20496;-59
2021/12/24 13:00:07;;;;;;;18.48;8.75;;;7.00;99.90;;;;;;5081035;28;20502;-58
2021/12/24 13:03:06;;;;;;;5.60;3.45;;;7.00;99.90;;;;;;5081898;28;20080;-59
2021/12/24 13:05:41;;;;;;;7.32;4.47;;;7.00;99.90;;;;;;5080168;28;20088;-59
2021/12/24 13:08:37;;;;;;;5.00;3.13;;;7.10;99.90;;;;;;5078239;28;20160;-58
2021/12/24 13:11:12;;;;;;;5.13;2.90;;;7.20;99.90;;;;;;5062331;28;20062;-58
2021/12/24 13:13:55;;;;;;;5.07;3.10;;;7.10;99.90;;;;;;5059656;28;20054;-58
2021/12/24 13:16:34;;;;;;;5.72;2.45;;;7.10;99.90;;;;;;5080831;28;20051;-59
2021/12/24 13:19:23;;;;;;;3.85;2.13;;;7.10;99.90;;;;;;5077462;28;20040;-59
2021/12/24 13:24:38;;;;;;;4.63;2.45;;;7.10;99.90;;;;;;5080364;28;20159;-59
2021/12/24 13:27:04;;;;;;;3.80;2.28;;;7.00;99.90;;;;;;5079214;28;20193;-59
2021/12/24 13:29:30;;;;;;;4.30;2.10;;;7.00;99.90;;;;;;5080960;28;21988;-58
2021/12/24 13:31:57;;;;;;;4.13;2.40;;;7.00;99.90;;;;;;5077592;28;20053;-58
2021/12/24 13:34:24;;;;;;;3.90;1.92;;;7.00;99.90;;;;;;5080126;28;20104;-58
2021/12/24 13:36:51;;;;;;;3.17;1.90;;;7.20;99.90;;;;;;5083806;28;20039;-59
2021/12/24 13:39:23;;;;;;;3.53;1.88;;;7.00;99.90;;;;;;5082550;28;20075;-59
2021/12/24 13:42:04;;;;;;;3.63;2.17;;;7.30;99.90;;;;;;5083693;28;20054;-59
2021/12/24 13:44:36;;;;;;;3.00;1.80;;;7.00;99.90;;;;;;5081594;28;20051;-60
2021/12/24 13:47:26;;;;;;;2.78;1.85;;;7.00;99.90;;;;;;5060266;28;20070;-59
2021/12/24 13:55:21;;;;;;;3.17;1.70;;;7.00;99.90;;;;;;5077877;28;20066;-58
2021/12/24 13:58:01;;;;;;;2.95;1.70;;;6.90;99.90;;;;;;5082105;28;20061;-59
2021/12/24 14:00:31;;;;;;;3.65;2.28;;;6.90;99.90;;;;;;5079926;28;20044;-59
2021/12/24 14:03:00;;;;;;;3.40;1.92;;;6.90;99.90;;;;;;5082377;28;20100;-60
2021/12/24 14:05:27;;;;;;;3.92;2.10;;;6.90;99.90;;;;;;5062483;28;20092;-60
2021/12/24 14:08:15;;;;;;;4.18;1.88;;;6.80;99.90;;;;;;5083842;28;20032;-58
2021/12/24 14:10:43;;;;;;;4.63;2.40;;;6.90;99.90;;;;;;5083354;28;20044;-59
2021/12/24 14:13:24;;;;;;;3.47;2.10;;;6.90;99.90;;;;;;5080112;28;20040;-61
2021/12/24 14:18:31;;;;;;;4.65;2.58;;;6.90;99.90;;;;;;5071777;28;20043;-58
2021/12/24 14:21:45;;;;;;;6.65;2.95;;;6.80;99.90;;;;;;5059059;28;20052;-58
2021/12/24 14:23:46;;;;;;;4.95;2.55;;;6.90;99.90;;;;;;5084110;28;20289;-57
2021/12/24 14:26:13;;;;;;;3.78;2.22;;;6.80;99.90;;;;;;5083887;28;20039;-58
2021/12/24 14:28:50;;;;;;;4.38;2.95;;;6.80;99.90;;;;;;5085066;28;20475;-58
2021/12/24 14:31:16;;;;;;;3.60;2.20;;;6.80;99.90;;;;;;5084097;28;20049;-58
2021/12/24 14:33:47;;;;;;;3.33;2.30;;;6.80;99.90;;;;;;5086139;28;20414;-59
2021/12/24 14:36:17;;;;;;;3.47;2.10;;;6.70;99.90;;;;;;5083397;28;20077;-58
2021/12/24 14:38:43;;;;;;;4.47;2.42;;;6.70;99.90;;;;;;5083925;28;20169;-58
2021/12/24 14:41:16;;;;;;;3.85;2.38;;;6.70;99.90;;;;;;5087405;28;20135;-58
2021/12/24 14:43:42;;;;;;;5.10;2.60;;;6.70;99.90;;;;;;5085373;28;20126;-59